Time;durP1;ratioP1;P1;durP2;ratioP2;P2;SDS_P1;SDS_P2;PMS_P1;PMS_P2;Temp;Humidity;BMP_temperature;BMP_pressure;BME280_temperature;BME280_humidity;BME280_pressure;Samples;Min_cycle;Max_cycle;Signal;HPM_P1;HPM_P2
2022/12/07 00:01:34;;;;;;;;;35.25;31.00;;;;;14.51;77.06;101175.50;146612;656;46017;-73
2022/12/07 00:04:30;;;;;;;;;45.00;34.75;;;;;14.47;77.27;101177.06;146614;602;46010;-73
2022/12/07 00:07:31;;;;;;;;;35.50;29.00;;;;;14.46;76.74;101174.41;146611;599;46016;-73
2022/12/07 00:10:25;;;;;;;;;26.00;23.50;;;;;14.43;76.88;101171.66;146616;580;46021;-71
2022/12/07 00:13:22;;;;;;;;;33.00;28.25;;;;;14.37;76.89;101180.09;146616;648;46014;-73
2022/12/07 00:16:39;;;;;;;;;31.25;27.75;;;;;14.29;76.78;101177.16;146620;618;46013;-73
2022/12/07 00:19:40;;;;;;;;;29.25;25.75;;;;;14.25;77.24;101177.84;146618;563;46016;-73
2022/12/07 00:22:43;;;;;;;;;26.50;24.00;;;;;14.28;77.69;101182.31;146616;648;47012;-73
2022/12/07 00:25:46;;;;;;;;;25.75;24.50;;;;;14.28;77.32;101177.09;146616;605;46016;-73
2022/12/07 00:28:41;;;;;;;;;28.50;24.25;;;;;14.29;77.89;101173.66;146615;631;46020;-72
2022/12/07 00:31:45;;;;;;;;;31.25;27.75;;;;;14.29;77.39;101177.16;146614;578;46014;-72
2022/12/07 00:34:40;;;;;;;;;29.50;26.25;;;;;14.30;77.42;101171.12;146620;706;46020;-72
2022/12/07 00:37:36;;;;;;;;;26.00;24.75;;;;;14.31;77.77;101169.41;146616;567;46012;-72
2022/12/07 00:40:31;;;;;;;;;31.25;27.25;;;;;14.31;77.70;101167.69;146618;570;46021;-72
2022/12/07 00:43:28;;;;;;;;;36.00;28.25;;;;;14.31;77.94;101172.91;146616;602;46014;-72
2022/12/07 00:46:30;;;;;;;;;41.00;30.25;;;;;14.28;77.47;101162.34;146619;571;46031;-73
2022/12/07 00:49:31;;;;;;;;;41.25;33.25;;;;;14.26;77.97;101163.09;146618;613;46016;-72
2022/12/07 00:52:35;;;;;;;;;35.75;28.50;;;;;14.22;78.22;101166.41;146621;594;46020;-72
2022/12/07 00:55:30;;;;;;;;;26.50;24.00;;;;;14.18;78.65;101167.97;146618;610;46014;-72
2022/12/07 00:58:27;;;;;;;;;25.50;23.50;;;;;14.15;78.34;101156.53;146616;587;46020;-73
2022/12/07 01:01:29;;;;;;;;;33.75;29.00;;;;;14.15;78.39;101170.44;146618;595;46016;-72
2022/12/07 01:04:28;;;;;;;;;29.25;25.75;;;;;14.15;78.23;101161.75;146620;660;46020;-72
2022/12/07 01:07:27;;;;;;;;;25.75;21.75;;;;;14.14;78.50;101155.59;146616;570;46016;-73
2022/12/07 01:10:25;;;;;;;;;33.00;29.00;;;;;14.13;78.34;101155.56;146618;583;46012;-72
2022/12/07 01:13:22;;;;;;;;;31.00;25.50;;;;;14.12;78.77;101154.69;146611;586;46016;-75
2022/12/07 01:16:23;;;;;;;;;32.00;29.00;;;;;14.14;79.27;101154.72;146615;645;46021;-72
2022/12/07 01:19:20;;;;;;;;;31.00;25.50;;;;;14.16;79.44;101158.31;146613;569;46016;-73
2022/12/07 01:22:18;;;;;;;;;24.50;21.75;;;;;14.17;79.24;101153.13;146614;608;46033;-73
2022/12/07 01:25:30;;;;;;;;;29.75;26.50;;;;;14.10;78.76;101143.28;146611;663;46012;-73
2022/12/07 01:28:26;;;;;;;;;29.00;27.00;;;;;14.20;79.15;101149.78;146613;723;46020;-73
2022/12/07 01:31:25;;;;;;;;;27.50;20.50;;;;;14.20;78.94;101153.28;146611;601;46916;-73
2022/12/07 01:34:24;;;;;;;;;28.50;24.75;;;;;14.20;79.01;101150.66;146612;575;46020;-70
2022/12/07 01:37:19;;;;;;;;;29.75;23.00;;;;;14.22;78.96;101151.63;146615;588;45042;-73
2022/12/07 01:40:17;;;;;;;;;25.25;22.50;;;;;14.23;78.62;101150.78;146619;653;46010;-72
2022/12/07 01:43:26;;;;;;;;;19.50;18.50;;;;;14.23;78.26;101147.31;146608;679;46037;-71
2022/12/07 01:46:33;;;;;;;;;23.75;21.00;;;;;14.16;78.75;101127.91;146615;596;46020;-71
2022/12/07 01:49:42;;;;;;;;;24.50;21.50;;;;;14.20;78.73;101134.12;146614;589;46014;-71
2022/12/07 01:52:44;;;;;;;;;24.25;18.00;;;;;14.18;78.60;101130.59;146616;572;46010;-71
2022/12/07 01:55:51;;;;;;;;;18.75;16.00;;;;;12.91;78.85;100914.81;146610;649;46915;-70
2022/12/07 01:58:55;;;;;;;;;18.00;16.25;;;;;14.14;79.03;101132.13;146608;587;46020;-71
2022/12/07 02:01:49;;;;;;;;;17.50;15.75;;;;;14.12;79.38;101126.00;146611;593;46916;-70
2022/12/07 02:04:44;;;;;;;;;18.75;15.50;;;;;14.09;79.52;101121.53;146615;621;46020;-71
2022/12/07 02:07:40;;;;;;;;;16.75;16.00;;;;;14.06;79.80;101118.78;146610;687;46017;-70
2022/12/07 02:10:35;;;;;;;;;19.00;17.00;;;;;14.04;80.10;101115.22;146614;566;46020;-70
2022/12/07 02:13:34;;;;;;;;;19.00;16.25;;;;;14.03;80.44;101112.56;146610;581;46037;-71
2022/12/07 02:17:02;;;;;;;;;21.50;19.50;;;;;11.79;80.42;100725.06;146613;671;47020;-70
2022/12/07 02:20:46;;;;;;;;;20.50;17.75;;;;;13.96;80.83;101105.28;146610;641;46016;-70
2022/12/07 02:24:17;;;;;;;;;20.50;17.75;;;;;13.92;81.25;101099.03;146613;645;46011;-70
2022/12/07 02:27:55;;;;;;;;;17.50;15.00;;;;;13.84;81.43;101096.09;146611;569;46014;-71
2022/12/07 02:30:52;;;;;;;;;20.75;18.75;;;;;13.77;81.93;101096.66;146612;613;46011;-71
2022/12/07 02:34:00;;;;;;;;;22.50;20.75;;;;;13.75;82.24;101084.37;146611;652;46016;-71
2022/12/07 02:37:44;;;;;;;;;17.50;16.25;;;;;12.01;82.16;100774.66;146615;565;46021;-70
2022/12/07 02:41:13;;;;;;;;;22.25;20.50;;;;;12.54;81.96;100860.22;146612;604;46016;-71
2022/12/07 02:44:12;;;;;;;;;23.00;19.50;;;;;13.70;82.54;101065.03;146613;612;46010;-71
2022/12/07 02:47:25;;;;;;;;;24.25;20.25;;;;;13.70;82.37;101059.81;146611;565;46016;-71
2022/12/07 02:50:28;;;;;;;;;22.25;18.50;;;;;13.73;82.89;101067.78;146611;596;46020;-71
2022/12/07 02:53:56;;;;;;;;;18.25;18.00;;;;;11.01;81.95;100579.53;146612;584;46915;-72
2022/12/07 02:57:27;;;;;;;;;19.75;19.50;;;;;12.14;82.18;100775.22;146615;659;46020;-70
2022/12/07 03:00:52;;;;;;;;;21.00;20.75;;;;;12.21;82.00;100783.38;146612;565;46013;-73
2022/12/07 03:04:11;;;;;;;;;24.75;22.25;;;;;12.23;82.60;100788.63;146611;565;46010;-74
2022/12/07 03:07:41;;;;;;;;;25.25;23.50;;;;;12.17;82.16;100776.22;146612;580;46017;-71
2022/12/07 03:11:04;;;;;;;;;29.50;22.25;;;;;12.19;82.23;100782.41;146617;611;46010;-71
2022/12/07 03:14:43;;;;;;;;;35.00;26.75;;;;;13.73;82.60;101053.03;146612;710;46017;-70
2022/12/07 03:17:55;;;;;;;;;28.50;26.25;;;;;10.97;82.34;100569.84;146617;594;46010;-71
2022/12/07 03:20:50;;;;;;;;;26.25;22.00;;;;;13.68;83.55;101046.75;146612;574;46032;-71
2022/12/07 03:23:52;;;;;;;;;30.50;25.25;;;;;13.69;83.80;101048.50;146615;581;46020;-72
2022/12/07 03:26:57;;;;;;;;;26.00;21.75;;;;;12.36;83.68;100810.88;146615;594;46016;-71
2022/12/07 03:30:16;;;;;;;;;28.00;23.25;;;;;13.71;83.21;101049.50;146617;565;46021;-71
2022/12/07 03:33:46;;;;;;;;;29.25;25.50;;;;;13.75;83.34;101051.38;146613;613;46012;-71
2022/12/07 03:37:10;;;;;;;;;32.25;27.50;;;;;13.75;83.60;101061.81;146614;670;46020;-72
2022/12/07 03:40:19;;;;;;;;;22.25;22.00;;;;;13.75;83.35;101061.81;146613;590;46016;-72
2022/12/07 03:43:15;;;;;;;;;31.50;26.50;;;;;13.77;83.70;101069.69;146615;595;46021;-72
2022/12/07 03:46:52;;;;;;;;;24.75;22.25;;;;;13.77;83.03;101065.41;146615;597;46012;-72
2022/12/07 03:50:20;;;;;;;;;23.00;21.25;;;;;12.27;82.48;100806.13;146615;602;46020;-70
2022/12/07 03:53:33;;;;;;;;;22.25;19.75;;;;;13.77;82.48;101067.06;146615;645;45017;-72
2022/12/07 03:56:40;;;;;;;;;21.75;19.00;;;;;13.77;82.69;101070.59;146614;579;46020;-72
2022/12/07 03:59:39;;;;;;;;;21.75;18.25;;;;;13.79;82.49;101074.16;146610;600;46915;-72
2022/12/07 04:02:36;;;;;;;;;23.50;21.00;;;;;13.80;82.43;101075.03;146615;644;46012;-71
2022/12/07 04:05:37;;;;;;;;;24.00;22.00;;;;;13.79;82.64;101076.75;146615;627;46013;-72
2022/12/07 04:08:29;;;;;;;;;24.00;18.25;;;;;13.78;82.78;101074.09;146612;579;46010;-69
2022/12/07 04:11:21;;;;;;;;;23.50;20.25;;;;;13.76;83.26;101071.41;146612;597;46012;-69
2022/12/07 04:14:19;;;;;;;;;22.25;22.25;;;;;13.72;83.14;101068.63;146612;614;46021;-70
2022/12/07 04:17:12;;;;;;;;;21.50;18.75;;;;;13.68;83.50;101072.81;146613;626;46012;-72
2022/12/07 04:20:04;;;;;;;;;22.50;20.25;;;;;13.62;83.62;101069.94;146613;585;46020;-69
2022/12/07 04:22:56;;;;;;;;;22.00;18.75;;;;;13.56;83.99;101056.63;146612;618;46014;-70
2022/12/07 04:25:52;;;;;;;;;20.75;19.25;;;;;13.52;84.36;101067.72;146616;636;46020;-71
2022/12/07 04:28:50;;;;;;;;;19.00;17.50;;;;;13.49;84.68;101065.88;146612;590;46017;-70
2022/12/07 04:32:13;;;;;;;;;;;;;;;;;;;;;
2022/12/07 04:35:08;;;;;;;;;19.50;19.00;;;;;13.50;85.14;101070.25;146614;599;46031;-72
2022/12/07 04:38:06;;;;;;;;;19.25;16.75;;;;;13.48;84.81;101071.00;146613;609;46012;-72
2022/12/07 04:40:59;;;;;;;;;21.75;18.75;;;;;13.46;85.07;101070.97;146609;614;48012;-71
2022/12/07 04:43:56;;;;;;;;;19.00;16.25;;;;;13.45;85.25;101069.16;146614;612;46021;-71
2022/12/07 04:46:52;;;;;;;;;18.25;18.25;;;;;13.48;85.50;101064.09;146611;624;46012;-73
2022/12/07 04:49:45;;;;;;;;;34.00;28.50;;;;;13.50;85.98;101067.66;146614;575;46011;-71
2022/12/07 04:52:43;;;;;;;;;28.25;25.75;;;;;13.52;85.98;101072.91;146612;570;46916;-72
2022/12/07 04:55:38;;;;;;;;;34.00;27.50;;;;;13.54;85.74;101066.06;146613;583;46020;-72
2022/12/07 04:58:41;;;;;;;;;27.00;22.75;;;;;13.57;85.59;101076.63;146613;585;46016;-71
2022/12/07 05:01:43;;;;;;;;;24.75;20.75;;;;;13.57;85.75;101080.13;146614;563;46020;-71
2022/12/07 05:04:42;;;;;;;;;20.50;18.25;;;;;13.57;85.63;101080.13;146611;570;46013;-71
2022/12/07 05:07:47;;;;;;;;;22.00;21.75;;;;;13.55;85.59;101079.19;146607;570;46020;-70
2022/12/07 05:10:39;;;;;;;;;22.00;19.00;;;;;13.51;85.43;101079.84;146612;583;46016;-69
2022/12/07 05:13:46;;;;;;;;;25.00;20.25;;;;;11.93;85.12;100808.88;146616;577;46010;-72
2022/12/07 05:16:40;;;;;;;;;22.00;20.25;;;;;13.45;85.78;101081.28;146609;611;48012;-72
2022/12/07 05:19:38;;;;;;;;;22.50;21.25;;;;;13.43;85.84;101077.72;146614;564;46021;-71
2022/12/07 05:22:43;;;;;;;;;20.00;15.25;;;;;11.87;85.85;100809.50;146611;604;46016;-72
2022/12/07 05:25:49;;;;;;;;;27.00;24.00;;;;;13.46;86.39;101083.06;146614;577;46010;-72
2022/12/07 05:28:54;;;;;;;;;21.75;21.25;;;;;13.47;86.24;101084.87;146612;581;46012;-72
2022/12/07 05:31:58;;;;;;;;;23.25;20.00;;;;;13.48;86.05;101089.25;146614;600;46012;-72
2022/12/07 05:35:00;;;;;;;;;;;;;;;;;;;;;
2022/12/07 05:38:01;;;;;;;;;24.50;21.25;;;;;13.50;86.68;101091.09;146605;603;47012;-72
2022/12/07 05:41:08;;;;;;;;;;;;;;;;;;;;;
2022/12/07 05:44:05;;;;;;;;;19.25;17.75;;;;;13.50;86.46;101079.81;146614;697;46020;-72
2022/12/07 05:47:11;;;;;;;;;20.25;16.50;;;;;13.52;86.11;101089.47;146612;573;46016;-71
2022/12/07 05:50:16;;;;;;;;;32.25;28.50;;;;;13.52;86.23;101091.16;146613;613;46021;-72
2022/12/07 05:53:18;;;;;;;;;29.25;22.75;;;;;13.53;86.24;101091.25;146609;569;46016;-72
2022/12/07 05:56:22;;;;;;;;;19.25;19.25;;;;;13.53;86.50;101083.44;146614;594;46013;-72
2022/12/07 05:59:23;;;;;;;;;25.00;23.00;;;;;13.52;86.14;101088.56;146611;635;46014;-72
2022/12/07 06:02:27;;;;;;;;;20.50;19.75;;;;;13.50;86.38;101082.41;146614;585;46010;-69
2022/12/07 06:05:26;;;;;;;;;24.00;20.50;;;;;13.49;86.40;101084.13;146612;605;46031;-73
2022/12/07 06:08:21;;;;;;;;;28.75;25.75;;;;;13.46;86.34;101081.37;146608;695;46010;-74
2022/12/07 06:14:39;;;;;;;;;21.00;18.50;;;;;13.40;86.67;101083.72;146614;579;46012;-70
2022/12/07 06:17:36;;;;;;;;;22.50;19.25;;;;;13.37;87.02;101080.97;146612;626;46014;-71
2022/12/07 06:20:31;;;;;;;;;21.00;19.50;;;;;13.32;87.03;101082.44;146614;590;46011;-69
2022/12/07 06:23:31;;;;;;;;;16.00;12.50;;;;;13.32;87.07;101083.34;146610;763;46915;-72
2022/12/07 06:26:26;;;;;;;;;24.25;20.75;;;;;13.36;87.60;101086.97;146613;617;46011;-71
2022/12/07 06:29:29;;;;;;;;;22.75;20.00;;;;;13.39;88.25;101095.84;146612;626;46014;-71
2022/12/07 06:32:33;;;;;;;;;58.25;45.25;;;;;13.40;88.71;101095.00;146611;576;46020;-70
2022/12/07 06:35:25;;;;;;;;;49.00;39.50;;;;;13.42;88.53;101096.78;146609;726;46012;-71
2022/12/07 06:38:28;;;;;;;;;44.00;36.25;;;;;13.40;88.47;101097.63;146611;717;46020;-70
2022/12/07 06:41:23;;;;;;;;;35.50;31.25;;;;;13.40;89.14;101097.63;146613;594;46017;-72
2022/12/07 06:44:17;;;;;;;;;35.00;29.00;;;;;13.39;88.54;101105.34;146614;620;46010;-71
2022/12/07 06:47:11;;;;;;;;;36.25;30.00;;;;;13.40;88.71;101099.34;146610;570;46015;-69
2022/12/07 06:50:12;;;;;;;;;33.00;29.50;;;;;13.42;88.59;101105.47;146614;574;46010;-69
2022/12/07 06:53:05;;;;;;;;;33.00;29.00;;;;;13.44;88.49;101108.19;146611;566;47012;-69
2022/12/07 06:56:03;;;;;;;;;38.75;29.50;;;;;13.46;88.40;101103.91;146611;613;46020;-69
2022/12/07 06:58:58;;;;;;;;;29.00;26.00;;;;;13.47;88.07;101108.31;146612;574;46014;-70
2022/12/07 07:01:54;;;;;;;;;30.25;27.00;;;;;13.48;88.13;101104.87;146612;592;46010;-71
2022/12/07 07:04:47;;;;;;;;;26.50;25.00;;;;;13.49;88.44;101104.03;146612;611;46016;-70
2022/12/07 07:07:48;;;;;;;;;32.00;28.25;;;;;13.51;88.44;101108.50;146611;595;46020;-70
2022/12/07 07:10:49;;;;;;;;;39.75;32.75;;;;;13.53;88.93;101106.88;146614;592;46030;-70
2022/12/07 07:13:53;;;;;;;;;39.00;32.75;;;;;13.54;89.06;101110.38;146618;589;46020;-72
2022/12/07 07:17:07;;;;;;;;;;;;;;;;;;;;;
2022/12/07 07:20:16;;;;;;;;;41.25;34.50;;;;;13.56;89.02;101104.41;146620;624;46020;-71
2022/12/07 07:23:19;;;;;;;;;39.00;32.50;;;;;13.58;89.21;101104.47;146617;622;46034;-71
2022/12/07 07:26:22;;;;;;;;;40.25;32.25;;;;;13.60;88.79;101105.44;146622;589;46021;-72
2022/12/07 07:29:24;;;;;;;;;40.75;32.25;;;;;13.63;88.87;101106.47;146616;732;46012;-72
2022/12/07 07:32:21;;;;;;;;;35.50;30.50;;;;;13.68;88.58;101108.41;146621;598;46021;-72
2022/12/07 07:35:14;;;;;;;;;47.00;37.50;;;;;13.67;88.38;101097.06;146614;591;48012;-72
2022/12/07 07:38:13;;;;;;;;;38.75;30.25;;;;;13.76;88.59;101110.50;146616;648;46010;-72
2022/12/07 07:41:09;;;;;;;;;35.50;30.75;;;;;13.77;88.27;101114.91;146618;608;46017;-72
2022/12/07 07:44:20;;;;;;;;;33.75;30.00;;;;;11.91;87.37;100780.25;146620;571;46010;-72
2022/12/07 07:47:21;;;;;;;;;37.00;31.50;;;;;13.81;88.01;101106.41;146616;662;46013;-72
2022/12/07 07:50:33;;;;;;;;;44.00;35.75;;;;;13.85;87.18;101113.50;146622;599;46010;-73
2022/12/07 07:53:28;;;;;;;;;32.75;30.50;;;;;13.89;87.85;101116.25;146618;609;46034;-72
2022/12/07 07:56:23;;;;;;;;;28.25;23.50;;;;;13.93;87.70;101113.88;146619;600;47020;-72
2022/12/07 07:59:19;;;;;;;;;29.00;27.75;;;;;13.96;87.95;101110.50;146617;569;46014;-72
2022/12/07 08:02:22;;;;;;;;;38.00;31.00;;;;;14.00;87.53;101117.63;146621;585;47010;-72
2022/12/07 08:05:21;;;;;;;;;39.75;32.75;;;;;14.02;87.64;101114.28;146617;617;46016;-72
2022/12/07 08:08:24;;;;;;;;;31.75;29.50;;;;;14.06;87.56;101120.50;146615;593;46010;-72
2022/12/07 08:11:30;;;;;;;;;30.75;27.50;;;;;12.53;87.01;100848.06;146608;597;47014;-72
2022/12/07 08:14:33;;;;;;;;;31.25;28.25;;;;;14.09;86.96;101116.31;146616;577;45020;-73
2022/12/07 08:17:27;;;;;;;;;30.75;28.25;;;;;14.12;87.07;101120.78;146612;583;46012;-73
2022/12/07 08:20:28;;;;;;;;;30.50;28.00;;;;;14.11;86.61;101116.34;146613;587;46020;-72
2022/12/07 08:23:22;;;;;;;;;34.50;29.75;;;;;14.07;86.15;101112.72;146614;599;46033;-74
2022/12/07 08:26:16;;;;;;;;;34.25;27.50;;;;;14.07;86.41;101111.84;146613;629;46021;-72
2022/12/07 08:29:11;;;;;;;;;32.00;28.25;;;;;14.06;86.29;101112.69;146610;591;46014;-73
2022/12/07 08:32:08;;;;;;;;;34.25;29.25;;;;;14.04;86.43;101114.31;146613;592;46021;-73
2022/12/07 08:35:03;;;;;;;;;29.75;26.50;;;;;14.08;86.90;101118.84;146607;620;46016;-73
2022/12/07 08:38:04;;;;;;;;;34.50;29.50;;;;;14.07;86.91;101104.91;146610;580;46010;-73
2022/12/07 08:41:04;;;;;;;;;32.00;28.25;;;;;14.15;86.90;101128.72;146611;599;46915;-72
2022/12/07 08:44:18;;;;;;;;;38.50;30.00;;;;;14.17;86.88;101110.53;146615;596;46020;-74
2022/12/07 08:47:27;;;;;;;;;34.25;29.75;;;;;14.21;86.67;101108.13;146612;601;46012;-73
2022/12/07 08:50:31;;;;;;;;;36.00;30.00;;;;;12.90;86.97;100864.47;146613;602;46020;-73
2022/12/07 08:53:36;;;;;;;;;37.25;30.25;;;;;14.26;87.08;101096.16;146612;684;46017;-72
2022/12/07 08:56:33;;;;;;;;;37.25;29.25;;;;;14.31;87.09;101093.75;146615;731;46010;-73
2022/12/07 08:59:32;;;;;;;;;44.25;35.25;;;;;14.35;86.84;101102.59;146611;573;46013;-73
2022/12/07 09:02:34;;;;;;;;;39.00;32.75;;;;;14.35;86.69;101084.34;146610;735;47010;-73
2022/12/07 09:05:27;;;;;;;;;33.00;28.75;;;;;14.41;86.52;101081.97;146609;588;46016;-73
2022/12/07 09:08:24;;;;;;;;;33.75;27.50;;;;;14.44;86.32;101082.09;146607;711;46021;-74
2022/12/07 09:11:21;;;;;;;;;33.75;29.50;;;;;14.45;86.13;101081.28;146611;576;46012;-74
2022/12/07 09:14:17;;;;;;;;;33.75;31.00;;;;;14.48;86.63;101081.41;146617;565;46010;-73
2022/12/07 09:17:22;;;;;;;;;36.75;31.00;;;;;14.50;86.50;101082.34;146613;600;46012;-74
2022/12/07 09:20:24;;;;;;;;;41.00;34.75;;;;;14.50;86.14;101075.41;146615;588;46010;-74
2022/12/07 09:23:29;;;;;;;;;;;;;;;;;;;;;
2022/12/07 09:26:42;;;;;;;;;;;;;;;;;;;;;
2022/12/07 09:29:40;;;;;;;;;49.25;39.75;;;;;14.54;87.21;101055.59;146612;570;46013;-73
2022/12/07 09:32:36;;;;;;;;;47.00;38.00;;;;;14.57;87.12;101047.00;146615;563;46020;-73
2022/12/07 09:35:38;;;;;;;;;48.75;38.00;;;;;14.61;86.36;101048.88;146612;588;46016;-74
2022/12/07 09:38:40;;;;;;;;;49.00;36.00;;;;;12.50;85.96;100656.34;146613;657;46010;-73
2022/12/07 09:41:34;;;;;;;;;45.25;36.00;;;;;14.84;86.88;101028.94;146611;610;46016;-73
2022/12/07 09:44:33;;;;;;;;;43.00;34.50;;;;;14.97;86.45;101012.91;146612;629;46020;-74
2022/12/07 09:47:27;;;;;;;;;54.25;42.75;;;;;15.13;85.69;101020.47;146614;571;46012;-74
2022/12/07 09:50:28;;;;;;;;;51.75;40.00;;;;;15.33;85.79;101013.37;146616;689;46010;-75
2022/12/07 09:53:38;;;;;;;;;49.25;39.00;;;;;15.60;85.28;101016.06;146612;599;46012;-73
2022/12/07 09:56:50;;;;;;;;;42.75;37.00;;;;;14.46;84.77;100762.16;146615;633;46020;-73
2022/12/07 09:59:55;;;;;;;;;34.75;30.75;;;;;16.16;84.23;101017.16;146612;580;46013;-75
2022/12/07 10:03:07;;;;;;;;;27.75;24.25;;;;;16.36;81.69;101010.00;146615;671;46020;-74
2022/12/07 10:06:07;;;;;;;;;27.25;25.75;;;;;16.44;81.24;100993.63;146617;652;46012;-74
2022/12/07 10:09:03;;;;;;;;;27.75;26.00;;;;;16.51;79.97;101001.75;146612;638;46024;-75
2022/12/07 10:12:15;;;;;;;;;28.50;25.25;;;;;16.51;79.51;100996.50;146612;613;46016;-75
2022/12/07 10:15:19;;;;;;;;;30.50;26.25;;;;;16.52;80.02;100989.53;146616;653;46028;-74
2022/12/07 10:18:29;;;;;;;;;23.50;22.50;;;;;16.64;81.54;100987.31;146612;597;46016;-73
2022/12/07 10:21:34;;;;;;;;;29.25;26.00;;;;;16.97;81.95;100986.56;146613;646;46030;-72
2022/12/07 10:24:39;;;;;;;;;28.00;24.50;;;;;17.43;82.88;100983.50;146612;583;46034;-73
2022/12/07 10:27:37;;;;;;;;;21.25;19.50;;;;;17.84;79.27;100981.12;146613;576;46020;-74
2022/12/07 10:30:30;;;;;;;;;23.00;21.50;;;;;18.06;77.11;100981.69;146611;591;46017;-73
2022/12/07 10:33:56;;;;;;;;;35.00;27.00;;;;;18.08;76.62;100983.50;146611;565;48010;-74
2022/12/07 10:37:19;;;;;;;;;30.25;26.00;;;;;18.04;77.59;100971.16;146611;611;46016;-72
2022/12/07 10:40:39;;;;;;;;;34.25;26.75;;;;;16.94;77.26;100732.41;146608;604;46020;-72
2022/12/07 10:43:32;;;;;;;;;33.00;25.25;;;;;18.54;74.76;100971.47;146612;601;46015;-74
2022/12/07 10:46:51;;;;;;;;;30.50;25.75;;;;;18.64;73.50;100972.56;146614;619;47012;-74
2022/12/07 10:50:23;;;;;;;;;35.25;29.50;;;;;18.51;75.00;100962.63;146612;578;46012;-74
2022/12/07 10:53:55;;;;;;;;;28.50;23.75;;;;;18.47;74.41;100964.28;146616;581;46010;-75
2022/12/07 10:57:45;;;;;;;;;31.25;26.25;;;;;15.86;73.83;100521.97;146612;563;46915;-74
2022/12/07 11:01:26;;;;;;;;;25.50;22.25;;;;;17.47;73.43;100793.09;146615;565;46029;-75
2022/12/07 11:05:06;;;;;;;;;26.25;24.50;;;;;18.65;75.72;100942.81;146611;606;46917;-75
2022/12/07 11:08:44;;;;;;;;;24.75;22.25;;;;;18.97;72.34;100930.41;146613;622;47010;-75
2022/12/07 11:12:16;;;;;;;;;;;;;;;;;;;;;
2022/12/07 11:15:23;;;;;;;;;24.50;21.00;;;;;18.64;71.74;100912.16;146612;607;46012;-74
2022/12/07 11:19:33;;;;;;;;;29.25;26.00;;;;;15.99;73.72;100471.75;146609;563;46016;-75
2022/12/07 11:23:11;;;;;;;;;17.75;17.00;;;;;18.50;71.84;100919.72;146611;715;46021;-73
2022/12/07 11:26:47;;;;;;;;;17.00;13.00;;;;;18.39;72.29;100910.72;146607;580;46016;-73
2022/12/07 11:30:32;;;;;;;;;13.75;11.50;;;;;15.52;71.62;100437.41;146613;566;46020;-73
2022/12/07 11:34:02;;;;;;;;;7.75;3.75;;;;;18.04;71.98;100904.66;146612;566;46916;-74
2022/12/07 11:37:03;;;;;;;;;17.25;14.75;;;;;17.89;72.39;100911.31;146622;587;46010;-74
2022/12/07 11:40:36;;;;;;;;;;;;;;;;;;;;;
2022/12/07 11:44:02;;;;;;;;;13.00;12.75;;;;;17.48;72.90;100911.13;146612;624;46011;-73
2022/12/07 11:47:26;;;;;;;;;19.25;13.75;;;;;14.49;73.66;100431.81;146611;582;46035;-74
2022/12/07 11:51:09;;;;;;;;;28.00;22.75;;;;;17.09;74.76;100906.56;146612;583;46013;-73
2022/12/07 11:54:28;;;;;;;;;18.00;16.50;;;;;14.11;75.45;100414.94;146612;631;46016;-74
2022/12/07 11:58:03;;;;;;;;;;;;;;;;;;;;;
2022/12/07 12:01:10;;;;;;;;;15.00;13.75;;;;;16.68;76.47;100900.12;146610;571;46012;-73
2022/12/07 12:04:52;;;;;;;;;16.00;14.25;;;;;12.93;76.44;100263.44;146614;606;46019;-73
2022/12/07 12:07:50;;;;;;;;;17.50;16.50;;;;;16.54;76.88;100897.13;146610;612;46918;-74
2022/12/07 12:11:52;;;;;;;;;16.50;11.75;;;;;13.77;76.67;100416.47;146612;624;46020;-74
2022/12/07 12:15:24;;;;;;;;;12.50;11.50;;;;;14.13;76.42;100470.66;146612;611;46914;-73
2022/12/07 12:18:56;;;;;;;;;12.25;12.25;;;;;13.72;75.70;100401.53;146613;608;46020;-72
2022/12/07 12:22:01;;;;;;;;;11.00;9.00;;;;;16.42;75.04;100894.16;146607;677;46012;-73
2022/12/07 12:25:00;;;;;;;;;14.75;13.50;;;;;16.34;74.99;100888.66;146618;594;46010;-74
2022/12/07 12:28:07;;;;;;;;;10.25;10.00;;;;;16.31;75.07;100898.16;146611;572;45036;-75
2022/12/07 12:31:27;;;;;;;;;12.25;11.25;;;;;16.29;75.52;100894.59;146614;586;46020;-73
2022/12/07 12:35:01;;;;;;;;;11.75;9.50;;;;;16.26;74.23;100891.88;146612;573;46016;-73
2022/12/07 12:38:22;;;;;;;;;10.75;9.75;;;;;16.23;74.19;100879.62;146620;571;46020;-75
2022/12/07 12:42:05;;;;;;;;;13.00;10.00;;;;;13.52;74.71;100422.59;146619;650;46016;-74
2022/12/07 12:45:30;;;;;;;;;23.00;20.25;;;;;16.19;73.76;100879.47;146616;620;46012;-76
2022/12/07 12:48:46;;;;;;;;;13.25;12.25;;;;;16.20;73.15;100884.75;146613;619;46012;-74
2022/12/07 12:51:47;;;;;;;;;14.50;11.75;;;;;16.15;72.07;100883.72;146616;618;45021;-74
2022/12/07 12:55:24;;;;;;;;;16.25;13.00;;;;;16.16;73.98;100883.75;146612;571;46012;-74
2022/12/07 12:58:50;;;;;;;;;14.75;12.25;;;;;16.19;74.41;100882.06;146615;630;46020;-73
2022/12/07 13:01:47;;;;;;;;;10.00;9.00;;;;;16.17;73.72;100876.81;146612;653;46012;-74
2022/12/07 13:05:31;;;;;;;;;10.25;8.50;;;;;13.32;73.48;100384.53;146620;651;46011;-73
2022/12/07 13:08:28;;;;;;;;;25.00;19.00;;;;;16.13;73.82;100874.91;146617;576;46012;-73
2022/12/07 13:11:30;;;;;;;;;16.75;15.25;;;;;16.12;74.23;100879.25;146612;629;46020;-73
2022/12/07 13:14:46;;;;;;;;;15.25;13.25;;;;;16.11;74.70;100889.69;146613;725;46016;-73
2022/12/07 13:18:02;;;;;;;;;9.50;9.50;;;;;13.36;74.10;100422.84;146614;683;47012;-74
2022/12/07 13:21:36;;;;;;;;;10.50;8.75;;;;;16.11;74.05;100876.63;146614;609;46016;-73
2022/12/07 13:24:50;;;;;;;;;12.50;12.50;;;;;13.22;73.91;100372.00;146620;602;46029;-72
2022/12/07 13:27:58;;;;;;;;;;;;;;;;;;;;;
2022/12/07 13:31:16;;;;;;;;;11.25;9.00;;;;;16.10;73.66;100882.66;146617;631;46020;-73
2022/12/07 13:34:41;;;;;;;;;14.50;10.50;;;;;13.33;73.60;100410.63;146614;574;46918;-73
2022/12/07 13:37:39;;;;;;;;;16.50;13.50;;;;;16.09;73.74;100870.44;146611;563;47012;-73
2022/12/07 13:40:34;;;;;;;;;13.00;11.00;;;;;16.08;73.83;100869.56;146610;612;46017;-73
2022/12/07 13:43:46;;;;;;;;;11.50;9.25;;;;;16.09;73.58;100871.31;146613;623;46010;-73
2022/12/07 13:47:38;;;;;;;;;;;;;;;;;;;;;
2022/12/07 13:50:40;;;;;;;;;12.25;9.75;;;;;16.05;73.73;100866.84;146613;564;46010;-73
2022/12/07 13:54:13;;;;;;;;;10.50;9.00;;;;;16.01;74.05;100865.00;146616;682;46034;-73
2022/12/07 13:57:13;;;;;;;;;16.75;13.75;;;;;16.00;73.99;100870.16;146618;579;46023;-75
2022/12/07 14:00:28;;;;;;;;;21.25;18.25;;;;;15.98;74.49;100862.28;146610;571;46016;-75
2022/12/07 14:03:43;;;;;;;;;21.75;19.00;;;;;15.98;74.55;100862.28;146614;564;46021;-76
2022/12/07 14:06:38;;;;;;;;;21.25;19.00;;;;;15.94;74.64;100868.22;146609;579;46915;-77
2022/12/07 14:09:39;;;;;;;;;22.75;19.75;;;;;15.90;74.78;100861.13;146613;612;46010;-74
2022/12/07 14:12:42;;;;;;;;;22.25;21.00;;;;;15.87;75.40;100867.16;146615;626;47012;-76
2022/12/07 14:15:39;;;;;;;;;20.75;17.00;;;;;15.85;75.13;100870.53;146619;591;46010;-76
2022/12/07 14:18:46;;;;;;;;;9.00;8.00;;;;;15.78;74.46;100869.47;146618;565;46016;-75
2022/12/07 14:21:41;;;;;;;;;20.75;16.00;;;;;15.74;74.75;100875.44;146619;670;46010;-74
2022/12/07 14:24:57;;;;;;;;;13.25;11.25;;;;;15.71;74.83;100875.34;146617;576;46012;-74
2022/12/07 14:28:50;;;;;;;;;12.00;11.25;;;;;12.83;75.64;100377.53;146621;573;46020;-74
2022/12/07 14:31:45;;;;;;;;;16.50;12.50;;;;;15.66;75.28;100876.88;146618;582;46017;-75
2022/12/07 14:35:02;;;;;;;;;27.25;25.50;;;;;15.65;75.67;100889.06;146617;628;46021;-75